createdAt,value
2023-09-06T00:01:53.500Z,9.63
2023-09-06T00:04:20.159Z,9.25
2023-09-06T00:06:46.766Z,8.05
2023-09-06T00:09:13.349Z,9.70
2023-09-06T00:11:40.899Z,10.20
2023-09-06T00:14:07.576Z,9.00
2023-09-06T00:16:34.056Z,7.43
2023-09-06T00:19:01.564Z,9.77
2023-09-06T00:21:28.692Z,8.38
2023-09-06T00:23:55.486Z,8.20
2023-09-06T00:26:22.016Z,6.82
2023-09-06T00:28:48.619Z,7.75
2023-09-06T00:31:15.269Z,7.82
2023-09-06T00:33:42.966Z,9.23
2023-09-06T00:36:09.461Z,7.93
2023-09-06T00:38:35.967Z,9.70
2023-09-06T00:41:02.469Z,10.82
2023-09-06T00:43:29.927Z,7.20
2023-09-06T00:45:57.187Z,8.65
2023-09-06T00:48:26.805Z,7.60
2023-09-06T00:50:55.612Z,10.63
2023-09-06T00:53:23.807Z,8.85
2023-09-06T00:55:53.625Z,7.78
2023-09-06T00:58:23.628Z,9.30
2023-09-06T01:00:51.095Z,8.13
2023-09-06T01:03:19.639Z,7.82
2023-09-06T01:05:50.226Z,8.95
2023-09-06T01:08:21.419Z,6.97
2023-09-06T01:10:48.064Z,11.60
2023-09-06T01:13:14.552Z,8.23
2023-09-06T01:15:44.212Z,15.30
2023-09-06T01:18:11.252Z,11.25
2023-09-06T01:20:54.081Z,8.15
2023-09-06T01:23:39.850Z,8.35
2023-09-06T01:26:07.008Z,10.13
2023-09-06T01:28:34.138Z,7.20
2023-09-06T01:31:01.627Z,9.57
2023-09-06T01:33:31.632Z,9.07
2023-09-06T01:35:58.553Z,10.85
2023-09-06T01:38:25.459Z,9.43
2023-09-06T01:40:53.135Z,10.77
2023-09-06T01:43:19.732Z,11.73
2023-09-06T01:45:52.547Z,8.05
2023-09-06T01:48:20.165Z,10.65
2023-09-06T01:50:46.869Z,11.10
2023-09-06T01:53:16.179Z,8.73
2023-09-06T01:55:43.588Z,9.65
2023-09-06T01:58:14.020Z,9.05
2023-09-06T02:00:40.752Z,10.27
2023-09-06T02:03:08.803Z,10.45
2023-09-06T02:05:36.310Z,13.23
2023-09-06T02:08:05.306Z,11.85
2023-09-06T02:10:31.764Z,12.20
2023-09-06T02:12:58.314Z,14.25
2023-09-06T02:15:24.833Z,8.68
2023-09-06T02:17:51.396Z,10.88
2023-09-06T02:20:22.403Z,9.52
2023-09-06T02:22:53.548Z,11.63
2023-09-06T02:25:24.966Z,10.82
2023-09-06T02:27:51.956Z,10.13
2023-09-06T02:30:18.504Z,9.57
2023-09-06T02:32:45.241Z,10.88
2023-09-06T02:35:14.711Z,10.20
2023-09-06T02:37:41.131Z,9.73
2023-09-06T02:40:15.137Z,14.48
2023-09-06T02:42:42.193Z,10.65
2023-09-06T02:45:13.230Z,8.93
2023-09-06T02:47:49.371Z,10.18
2023-09-06T02:50:18.102Z,8.52
2023-09-06T02:52:48.026Z,9.77
2023-09-06T02:55:15.113Z,9.50
2023-09-06T02:57:42.666Z,9.20
2023-09-06T03:00:26.553Z,10.80
2023-09-06T03:02:57.150Z,12.32
2023-09-06T03:05:23.739Z,10.77
2023-09-06T03:07:50.700Z,13.40
2023-09-06T03:10:20.840Z,12.38
2023-09-06T03:12:48.752Z,17.25
2023-09-06T03:15:16.685Z,9.25
2023-09-06T03:17:47.974Z,14.35
2023-09-06T03:20:22.960Z,12.85
2023-09-06T03:22:52.529Z,10.20
2023-09-06T03:25:19.090Z,11.32
2023-09-06T03:27:46.122Z,9.43
2023-09-06T03:30:16.380Z,15.35
2023-09-06T03:32:43.960Z,11.18
2023-09-06T03:35:10.754Z,10.32
2023-09-06T03:37:37.272Z,11.75
2023-09-06T03:40:13.874Z,11.55
2023-09-06T03:42:42.211Z,10.85
2023-09-06T03:45:16.533Z,10.13
2023-09-06T03:47:43.249Z,14.63
2023-09-06T03:50:10.267Z,13.30
2023-09-06T03:52:37.356Z,11.25
2023-09-06T03:55:04.344Z,9.38
2023-09-06T03:57:30.891Z,11.90
2023-09-06T03:59:57.414Z,14.73
2023-09-06T04:02:28.412Z,11.93
2023-09-06T04:04:55.425Z,11.40
2023-09-06T04:07:25.631Z,12.00
2023-09-06T04:09:57.492Z,13.10
2023-09-06T04:12:24.077Z,12.45
2023-09-06T04:14:50.700Z,11.43
2023-09-06T04:17:18.545Z,10.75
2023-09-06T04:19:46.144Z,11.00
2023-09-06T04:22:14.186Z,13.25
2023-09-06T04:24:40.687Z,11.75
2023-09-06T04:27:07.192Z,12.68
2023-09-06T04:29:33.725Z,17.27
2023-09-06T04:32:00.348Z,12.43
2023-09-06T04:34:27.747Z,15.75
2023-09-06T04:36:54.261Z,12.05
2023-09-06T04:39:21.475Z,11.30
2023-09-06T04:41:47.999Z,13.45
2023-09-06T04:44:14.517Z,11.63
2023-09-06T04:46:41.078Z,11.65
2023-09-06T04:49:08.253Z,13.25
2023-09-06T04:51:34.774Z,13.18
2023-09-06T04:54:01.478Z,12.90
2023-09-06T04:56:28.022Z,11.10
2023-09-06T04:58:54.560Z,12.98
2023-09-06T05:01:21.057Z,12.55
2023-09-06T05:03:47.658Z,12.18
2023-09-06T05:06:14.708Z,13.00
2023-09-06T05:08:41.334Z,14.10
2023-09-06T05:11:08.033Z,15.32
2023-09-06T05:13:34.622Z,11.63
2023-09-06T05:16:02.654Z,12.07
2023-09-06T05:18:29.577Z,12.65
2023-09-06T05:20:57.130Z,14.48
2023-09-06T05:23:23.676Z,11.63
2023-09-06T05:25:52.205Z,14.98
2023-09-06T05:28:20.042Z,13.02
2023-09-06T05:30:47.718Z,13.40
2023-09-06T05:33:15.216Z,13.02
2023-09-06T05:35:42.638Z,17.73
2023-09-06T05:38:10.441Z,14.90
2023-09-06T05:40:37.148Z,14.57
2023-09-06T05:43:05.178Z,15.95
2023-09-06T05:45:31.863Z,14.63
2023-09-06T05:47:58.619Z,17.30
2023-09-06T05:50:25.280Z,13.65
2023-09-06T05:52:51.768Z,12.50
2023-09-06T05:55:18.493Z,16.08
2023-09-06T05:57:45.251Z,13.43
2023-09-06T06:00:16.900Z,15.05
2023-09-06T06:02:46.216Z,13.32
2023-09-06T06:05:13.450Z,13.32
2023-09-06T06:07:40.658Z,14.88
2023-09-06T06:10:10.877Z,14.20
2023-09-06T06:12:41.136Z,13.52
2023-09-06T06:15:10.405Z,15.73
2023-09-06T06:17:37.965Z,17.67
2023-09-06T06:20:07.921Z,17.95
2023-09-06T06:22:39.063Z,19.20
2023-09-06T06:25:08.216Z,15.05
2023-09-06T06:27:35.229Z,15.13
2023-09-06T06:30:02.042Z,16.20
2023-09-06T06:32:28.633Z,17.65
2023-09-06T06:34:58.045Z,24.30
2023-09-06T06:37:24.624Z,19.50
2023-09-06T06:39:51.236Z,16.33
2023-09-06T06:42:18.038Z,18.02
2023-09-06T06:44:48.474Z,14.13
2023-09-06T06:47:15.230Z,15.43
2023-09-06T06:49:41.848Z,17.33
2023-09-06T06:52:08.488Z,18.77
2023-09-06T06:54:35.742Z,17.48
2023-09-06T06:57:03.046Z,14.43
2023-09-06T06:59:29.629Z,15.88
2023-09-06T07:01:56.305Z,18.30
2023-09-06T07:04:22.998Z,16.67
2023-09-06T07:06:49.512Z,17.10
2023-09-06T07:09:15.996Z,14.80
2023-09-06T07:11:42.461Z,19.10
2023-09-06T07:14:09.030Z,14.05
2023-09-06T07:16:35.762Z,19.65
2023-09-06T07:19:03.733Z,21.30
2023-09-06T07:21:31.255Z,14.20
2023-09-06T07:23:57.710Z,18.83
2023-09-06T07:26:24.375Z,19.33
2023-09-06T07:28:51.237Z,17.23
2023-09-06T07:31:19.042Z,17.05
2023-09-06T07:33:45.954Z,17.15
2023-09-06T07:36:13.360Z,17.85
2023-09-06T07:38:39.901Z,16.35
2023-09-06T07:41:08.419Z,15.65
2023-09-06T07:43:37.388Z,18.08
2023-09-06T07:46:05.345Z,15.80
2023-09-06T07:48:32.491Z,15.82
2023-09-06T07:51:00.415Z,17.38
2023-09-06T07:53:27.725Z,16.40
2023-09-06T07:55:56.455Z,16.02
2023-09-06T07:58:23.591Z,15.48
2023-09-06T08:00:59.167Z,15.32
2023-09-06T08:03:34.765Z,20.85
2023-09-06T08:06:01.345Z,14.68
2023-09-06T08:08:28.158Z,13.23
2023-09-06T08:10:54.824Z,18.33
2023-09-06T08:13:21.401Z,13.13
2023-09-06T08:15:47.957Z,11.55
2023-09-06T08:18:14.562Z,12.27
2023-09-06T08:20:41.157Z,12.55
2023-09-06T08:23:07.649Z,12.48
2023-09-06T08:25:34.927Z,12.20
2023-09-06T08:28:01.653Z,13.52
2023-09-06T08:30:28.612Z,15.07
2023-09-06T08:32:57.089Z,11.23
2023-09-06T08:35:24.592Z,11.88
2023-09-06T08:37:51.623Z,11.63
2023-09-06T08:40:19.798Z,11.13
2023-09-06T08:42:46.641Z,11.82
2023-09-06T08:45:13.129Z,10.48
2023-09-06T08:47:41.191Z,13.85
2023-09-06T08:50:11.924Z,13.45
2023-09-06T08:52:45.528Z,11.25
2023-09-06T08:55:12.609Z,9.48
2023-09-06T08:57:40.254Z,9.88
2023-09-06T09:00:11.015Z,13.07
2023-09-06T09:02:41.771Z,11.40
2023-09-06T09:05:20.298Z,11.25
2023-09-06T09:07:49.281Z,9.55
2023-09-06T09:10:15.797Z,12.32
2023-09-06T09:12:42.710Z,13.70
2023-09-06T09:15:22.743Z,10.55
2023-09-06T09:20:22.256Z,14.65
2023-09-06T09:22:51.435Z,10.48
2023-09-06T09:25:24.302Z,10.48
2023-09-06T09:27:57.610Z,10.45
2023-09-06T09:30:25.384Z,13.30
2023-09-06T09:33:03.501Z,17.77
2023-09-06T09:35:33.019Z,8.88
2023-09-06T09:38:02.653Z,11.45
2023-09-06T09:43:05.699Z,9.27
2023-09-06T09:45:46.927Z,10.05
2023-09-06T09:48:16.267Z,9.93
2023-09-06T09:50:45.271Z,11.95
2023-09-06T09:55:49.182Z,10.75
2023-09-06T09:58:17.400Z,13.88
2023-09-06T10:00:48.569Z,13.55
2023-09-06T10:03:16.015Z,18.05
2023-09-06T10:05:43.709Z,7.55
2023-09-06T10:08:11.435Z,9.35
2023-09-06T10:10:41.823Z,8.65
2023-09-06T10:13:09.649Z,7.68
2023-09-06T10:15:37.731Z,8.05
2023-09-06T10:18:05.804Z,10.95
2023-09-06T10:20:33.533Z,14.05
2023-09-06T10:23:01.112Z,12.48
2023-09-06T10:25:27.907Z,8.43
2023-09-06T10:27:56.290Z,9.15
2023-09-06T10:30:45.526Z,11.18
2023-09-06T10:33:34.973Z,12.40
2023-09-06T10:36:07.561Z,10.80
2023-09-06T10:38:36.721Z,12.38
2023-09-06T10:41:07.919Z,7.97
2023-09-06T10:43:55.372Z,12.95
2023-09-06T10:46:27.876Z,10.20
2023-09-06T10:49:30.542Z,7.18
2023-09-06T10:52:09.367Z,10.20
2023-09-06T10:57:11.412Z,6.50
2023-09-06T10:59:38.239Z,8.15
2023-09-06T11:02:22.468Z,8.77
2023-09-06T11:04:52.028Z,7.90
2023-09-06T11:07:19.044Z,10.32
2023-09-06T11:09:46.393Z,8.15
2023-09-06T11:12:13.864Z,6.25
2023-09-06T11:14:41.766Z,8.73
2023-09-06T11:17:08.511Z,7.55
2023-09-06T11:19:37.929Z,6.72
2023-09-06T11:22:09.368Z,8.73
2023-09-06T11:24:37.051Z,8.43
2023-09-06T11:27:23.284Z,12.20
2023-09-06T11:29:58.722Z,9.07
2023-09-06T11:32:25.455Z,10.15
2023-09-06T11:34:52.127Z,6.15
2023-09-06T11:37:19.779Z,9.35
2023-09-06T11:39:47.059Z,9.85
2023-09-06T11:42:16.607Z,7.53
2023-09-06T11:44:49.010Z,7.55
2023-09-06T11:47:20.168Z,11.35
2023-09-06T11:52:17.179Z,5.65
2023-09-06T11:54:46.049Z,7.47
2023-09-06T11:57:26.919Z,8.23
2023-09-06T11:59:54.809Z,9.45
2023-09-06T12:02:22.445Z,7.68
2023-09-06T12:04:54.284Z,7.95
2023-09-06T12:07:24.681Z,5.65
2023-09-06T12:09:52.048Z,8.32
2023-09-06T12:12:18.584Z,7.82
2023-09-06T12:14:45.509Z,8.25
2023-09-06T12:17:12.671Z,6.95
2023-09-06T12:19:39.262Z,6.50
2023-09-06T12:22:06.551Z,6.90
2023-09-06T12:24:34.994Z,5.82
2023-09-06T12:27:02.051Z,6.45
2023-09-06T12:29:28.692Z,7.97
2023-09-06T12:31:55.242Z,9.07
2023-09-06T12:34:22.720Z,7.32
2023-09-06T12:36:49.269Z,5.90
2023-09-06T12:39:16.313Z,7.15
2023-09-06T12:41:43.509Z,7.47
2023-09-06T12:44:10.092Z,9.95
2023-09-06T12:46:36.685Z,6.95
2023-09-06T12:49:05.513Z,7.85
2023-09-06T12:51:32.115Z,7.30
2023-09-06T12:53:58.592Z,7.82
2023-09-06T12:56:25.131Z,6.40
2023-09-06T12:58:51.596Z,8.43
2023-09-06T13:01:18.099Z,9.82
2023-09-06T13:03:47.611Z,7.90
2023-09-06T13:06:14.308Z,7.88
2023-09-06T13:08:42.779Z,8.18
2023-09-06T13:11:09.470Z,8.57
2023-09-06T13:13:36.825Z,6.22
2023-09-06T13:16:05.901Z,4.97
2023-09-06T13:18:32.789Z,5.63
2023-09-06T13:21:01.050Z,7.60
2023-09-06T13:23:27.553Z,7.03
2023-09-06T13:25:54.046Z,5.97
2023-09-06T13:28:20.546Z,8.57
2023-09-06T13:30:48.779Z,7.80
2023-09-06T13:33:15.426Z,9.25
2023-09-06T13:35:42.012Z,5.57
2023-09-06T13:38:11.422Z,6.88
2023-09-06T13:40:37.957Z,11.65
2023-09-06T13:43:04.491Z,7.75
2023-09-06T13:45:31.150Z,7.75
2023-09-06T13:47:57.917Z,5.68
2023-09-06T13:50:24.580Z,7.22
2023-09-06T13:52:51.180Z,4.70
2023-09-06T13:55:17.754Z,8.52
2023-09-06T13:57:46.774Z,6.07
2023-09-06T14:00:13.751Z,7.63
2023-09-06T14:02:40.454Z,6.72
2023-09-06T14:05:07.619Z,8.40
2023-09-06T14:07:34.272Z,7.38
2023-09-06T14:10:00.841Z,9.13
2023-09-06T14:12:28.094Z,7.90
2023-09-06T14:14:57.608Z,8.50
2023-09-06T14:17:24.219Z,6.93
2023-09-06T14:19:50.937Z,6.05
2023-09-06T14:22:17.441Z,10.55
2023-09-06T14:24:43.925Z,5.35
2023-09-06T14:27:10.500Z,7.45
2023-09-06T14:29:37.068Z,8.35
2023-09-06T14:32:03.793Z,6.03
2023-09-06T14:34:30.261Z,7.57
2023-09-06T14:36:56.836Z,7.88
2023-09-06T14:39:24.420Z,8.80
2023-09-06T14:41:51.069Z,7.78
2023-09-06T14:44:18.625Z,10.32
2023-09-06T14:46:45.356Z,7.20
2023-09-06T14:49:13.368Z,11.00
2023-09-06T14:51:40.139Z,7.00
2023-09-06T14:54:07.442Z,7.55
2023-09-06T14:56:37.422Z,6.60
2023-09-06T14:59:04.655Z,9.18
2023-09-06T15:01:31.296Z,5.95
2023-09-06T15:03:58.190Z,9.48
2023-09-06T15:06:24.764Z,7.28
2023-09-06T15:08:57.730Z,6.30
2023-09-06T15:11:24.390Z,7.13
2023-09-06T15:13:50.912Z,10.50
2023-09-06T15:16:17.438Z,10.93
2023-09-06T15:18:45.980Z,7.65
2023-09-06T15:21:12.606Z,7.68
2023-09-06T15:23:39.212Z,11.95
2023-09-06T15:26:07.509Z,8.07
2023-09-06T15:28:34.107Z,7.60
2023-09-06T15:31:00.758Z,9.05
2023-09-06T15:33:27.442Z,7.55
2023-09-06T15:35:55.733Z,6.85
2023-09-06T15:38:22.392Z,6.93
2023-09-06T15:40:49.843Z,7.18
2023-09-06T15:43:16.495Z,7.65
2023-09-06T15:45:43.348Z,7.95
2023-09-06T15:48:09.851Z,5.57
2023-09-06T15:50:36.452Z,6.93
2023-09-06T15:53:03.136Z,11.10
2023-09-06T15:55:29.742Z,9.30
2023-09-06T15:57:56.438Z,8.55
2023-09-06T16:02:52.613Z,9.32
2023-09-06T16:05:19.567Z,7.65
2023-09-06T16:07:47.133Z,6.55
2023-09-06T16:10:13.700Z,9.70
2023-09-06T16:12:41.828Z,8.00
2023-09-06T16:15:08.959Z,8.20
2023-09-06T16:17:35.461Z,7.57
2023-09-06T16:20:02.086Z,6.75
2023-09-06T16:22:28.564Z,7.93
2023-09-06T16:24:55.857Z,9.85
2023-09-06T16:27:23.083Z,8.43
2023-09-06T16:29:50.174Z,7.25
2023-09-06T16:32:16.858Z,8.82
2023-09-06T16:34:43.988Z,11.77
2023-09-06T16:37:10.572Z,9.45
2023-09-06T16:39:37.183Z,10.98
2023-09-06T16:42:03.912Z,9.30
2023-09-06T16:44:31.269Z,7.70
2023-09-06T16:46:59.649Z,8.98
2023-09-06T16:49:26.831Z,8.30
2023-09-06T16:51:53.611Z,7.72
2023-09-06T16:54:20.452Z,11.27
2023-09-06T16:56:47.413Z,8.80
2023-09-06T16:59:14.165Z,7.47
2023-09-06T17:01:40.930Z,5.75
2023-09-06T17:04:10.626Z,8.95
2023-09-06T17:06:37.176Z,8.38
2023-09-06T17:09:09.579Z,5.78
2023-09-06T17:11:44.033Z,5.85
2023-09-06T17:14:12.237Z,6.70
2023-09-06T17:16:39.026Z,10.25
2023-09-06T17:19:10.058Z,8.85
2023-09-06T17:21:39.815Z,8.27
2023-09-06T17:24:08.301Z,6.93
2023-09-06T17:26:37.569Z,7.47
2023-09-06T17:29:07.390Z,7.05
2023-09-06T17:31:37.166Z,6.20
2023-09-06T17:34:03.786Z,8.00
2023-09-06T17:36:30.397Z,7.35
2023-09-06T17:38:59.717Z,7.28
2023-09-06T17:41:26.569Z,5.80
2023-09-06T17:43:53.190Z,7.80
2023-09-06T17:46:26.212Z,8.65
2023-09-06T17:48:54.204Z,7.05
2023-09-06T17:51:21.709Z,10.82
2023-09-06T17:53:48.784Z,6.82
2023-09-06T17:56:17.529Z,7.93
2023-09-06T17:58:45.671Z,7.07
2023-09-06T18:01:15.212Z,7.57
2023-09-06T18:03:44.750Z,9.57
2023-09-06T18:06:12.788Z,8.55
2023-09-06T18:08:43.635Z,7.60
2023-09-06T18:11:10.646Z,6.45
2023-09-06T18:13:40.591Z,6.60
2023-09-06T18:16:08.479Z,7.45
2023-09-06T18:18:35.216Z,7.30
2023-09-06T18:21:05.141Z,5.07
2023-09-06T18:23:33.132Z,7.20
2023-09-06T18:26:01.802Z,7.53
2023-09-06T18:28:29.055Z,7.07
2023-09-06T18:30:56.318Z,8.40
2023-09-06T18:33:24.026Z,6.35
2023-09-06T18:35:54.608Z,8.38
2023-09-06T18:38:21.901Z,7.78
2023-09-06T18:40:57.554Z,8.23
2023-09-06T18:43:24.287Z,7.22
2023-09-06T18:45:56.436Z,7.15
2023-09-06T18:48:23.539Z,7.57
2023-09-06T18:50:51.194Z,6.60
2023-09-06T18:53:18.428Z,8.35
2023-09-06T18:55:48.595Z,7.38
2023-09-06T18:58:18.249Z,10.85
2023-09-06T19:00:44.986Z,7.35
2023-09-06T19:03:14.880Z,9.68
2023-09-06T19:05:42.852Z,9.98
2023-09-06T19:08:15.429Z,6.93
2023-09-06T19:10:43.311Z,7.20
2023-09-06T19:13:11.203Z,8.45
2023-09-06T19:15:37.705Z,6.15
2023-09-06T19:18:04.866Z,9.57
2023-09-06T19:20:31.477Z,7.50
2023-09-06T19:23:05.984Z,7.10
2023-09-06T19:25:32.590Z,6.97
2023-09-06T19:27:59.122Z,7.03
2023-09-06T19:30:26.755Z,6.72
2023-09-06T19:32:53.334Z,6.55
2023-09-06T19:35:20.063Z,8.05
2023-09-06T19:37:46.748Z,8.38
2023-09-06T19:40:13.282Z,6.93
2023-09-06T19:42:39.819Z,6.82
2023-09-06T19:45:06.939Z,8.48
2023-09-06T19:47:33.990Z,6.65
2023-09-06T19:50:00.841Z,7.32
2023-09-06T19:52:27.551Z,8.20
2023-09-06T19:55:01.401Z,8.02
2023-09-06T19:57:30.705Z,7.28
2023-09-06T19:59:58.275Z,6.60
2023-09-06T20:02:25.075Z,7.45
2023-09-06T20:04:51.898Z,7.22
2023-09-06T20:07:18.596Z,9.60
2023-09-06T20:09:45.091Z,9.48
2023-09-06T20:12:11.653Z,11.35
2023-09-06T20:14:38.140Z,7.93
2023-09-06T20:17:04.907Z,8.93
2023-09-06T20:19:32.342Z,7.07
2023-09-06T20:21:58.973Z,10.40
2023-09-06T20:24:25.628Z,9.10
2023-09-06T20:26:52.348Z,9.98
2023-09-06T20:29:19.124Z,10.57
2023-09-06T20:31:45.885Z,9.15
2023-09-06T20:34:13.467Z,6.85
2023-09-06T20:36:40.051Z,6.82
2023-09-06T20:39:07.979Z,6.95
2023-09-06T20:41:36.274Z,9.85
2023-09-06T20:44:03.166Z,7.10
2023-09-06T20:46:29.761Z,9.52
2023-09-06T20:48:56.516Z,7.70
2023-09-06T20:51:23.755Z,9.75
2023-09-06T20:53:51.880Z,10.15
2023-09-06T20:56:18.620Z,7.68
2023-09-06T20:58:45.515Z,10.43
2023-09-06T21:01:17.013Z,7.32
2023-09-06T21:03:44.502Z,7.07
2023-09-06T21:06:11.964Z,10.63
2023-09-06T21:08:38.810Z,8.75
2023-09-06T21:11:05.430Z,11.15
2023-09-06T21:13:33.339Z,7.40
2023-09-06T21:16:02.259Z,8.75
2023-09-06T21:18:30.016Z,9.27
2023-09-06T21:20:57.455Z,13.77
2023-09-06T21:23:24.048Z,9.07
2023-09-06T21:25:53.283Z,7.72
2023-09-06T21:28:20.096Z,8.90
2023-09-06T21:30:48.429Z,8.95
2023-09-06T21:33:15.757Z,9.18
2023-09-06T21:35:44.025Z,9.68
2023-09-06T21:38:11.298Z,7.95
2023-09-06T21:40:42.283Z,10.13
2023-09-06T21:43:17.770Z,10.95
2023-09-06T21:45:45.254Z,11.02
2023-09-06T21:48:12.040Z,8.68
2023-09-06T21:50:41.175Z,10.65
2023-09-06T21:53:07.905Z,13.98
2023-09-06T21:55:34.546Z,8.02
2023-09-06T21:58:09.820Z,8.77
2023-09-06T22:00:37.528Z,7.95
2023-09-06T22:03:04.558Z,9.15
2023-09-06T22:05:31.173Z,8.13
2023-09-06T22:07:57.725Z,10.45
2023-09-06T22:10:24.287Z,9.43
2023-09-06T22:12:50.912Z,9.30
2023-09-06T22:15:17.540Z,10.13
2023-09-06T22:17:44.128Z,9.65
2023-09-06T22:20:11.335Z,7.43
2023-09-06T22:22:40.327Z,10.27
2023-09-06T22:25:07.680Z,7.80
2023-09-06T22:27:34.699Z,7.80
2023-09-06T22:30:01.876Z,6.85
2023-09-06T22:32:28.564Z,8.40
2023-09-06T22:34:55.291Z,10.27
2023-09-06T22:37:21.875Z,7.65
2023-09-06T22:39:48.633Z,8.70
2023-09-06T22:42:15.259Z,12.10
2023-09-06T22:44:42.003Z,8.63
2023-09-06T22:47:10.149Z,7.15
2023-09-06T22:49:38.696Z,7.88
2023-09-06T22:52:07.154Z,8.20
2023-09-06T22:54:36.837Z,8.40
2023-09-06T22:57:04.516Z,10.25
2023-09-06T22:59:31.464Z,8.70
2023-09-06T23:01:58.265Z,6.70
2023-09-06T23:04:24.911Z,6.32
2023-09-06T23:06:51.436Z,9.73
2023-09-06T23:09:20.133Z,8.05
2023-09-06T23:11:51.171Z,8.07
2023-09-06T23:14:19.298Z,8.07
2023-09-06T23:16:49.186Z,8.57
2023-09-06T23:19:21.770Z,7.85
2023-09-06T23:21:50.639Z,7.95
2023-09-06T23:24:18.731Z,8.77
2023-09-06T23:26:47.689Z,7.45
2023-09-06T23:29:17.450Z,9.57
2023-09-06T23:31:54.321Z,7.32
2023-09-06T23:34:31.383Z,7.43
2023-09-06T23:36:59.163Z,6.80
2023-09-06T23:39:29.440Z,13.52
2023-09-06T23:41:57.980Z,10.82
2023-09-06T23:44:25.265Z,7.00
2023-09-06T23:46:52.046Z,10.60
2023-09-06T23:49:21.124Z,11.07
2023-09-06T23:51:48.280Z,8.52
2023-09-06T23:54:15.290Z,10.13
2023-09-06T23:56:42.083Z,10.25
2023-09-06T23:59:09.014Z,9.15
